sensor_id;sensor_type;location;lat;lon;timestamp;temperature;humidity
21928;DHT22;11128;51.096;17.190;2023-09-07T00:04:50;16.10;99.90
21928;DHT22;11128;51.096;17.190;2023-09-07T00:09:51;16.00;99.90
21928;DHT22;11128;51.096;17.190;2023-09-07T00:14:53;15.90;99.90
21928;DHT22;11128;51.096;17.190;2023-09-07T00:19:58;15.90;99.90
21928;DHT22;11128;51.096;17.190;2023-09-07T00:24:59;15.90;99.90
21928;DHT22;11128;51.096;17.190;2023-09-07T00:30:01;15.90;99.90
21928;DHT22;11128;51.096;17.190;2023-09-07T00:35:02;15.80;99.90
21928;DHT22;11128;51.096;17.190;2023-09-07T00:40:04;15.70;99.90
21928;DHT22;11128;51.096;17.190;2023-09-07T00:45:09;15.70;99.90
21928;DHT22;11128;51.096;17.190;2023-09-07T00:50:11;15.80;99.90
21928;DHT22;11128;51.096;17.190;2023-09-07T00:55:15;16.00;99.90
21928;DHT22;11128;51.096;17.190;2023-09-07T01:00:17;15.80;99.90
21928;DHT22;11128;51.096;17.190;2023-09-07T01:05:21;15.70;99.90
21928;DHT22;11128;51.096;17.190;2023-09-07T01:10:24;15.60;99.90
21928;DHT22;11128;51.096;17.190;2023-09-07T01:15:26;15.60;99.90
21928;DHT22;11128;51.096;17.190;2023-09-07T01:20:28;15.50;99.90
21928;DHT22;11128;51.096;17.190;2023-09-07T01:25:31;15.30;99.90
21928;DHT22;11128;51.096;17.190;2023-09-07T01:30:35;15.20;99.90
21928;DHT22;11128;51.096;17.190;2023-09-07T01:35:38;15.10;99.90
21928;DHT22;11128;51.096;17.190;2023-09-07T01:40:40;14.90;1.00
21928;DHT22;11128;51.096;17.190;2023-09-07T01:45:41;14.70;1.00
21928;DHT22;11128;51.096;17.190;2023-09-07T01:50:42;14.70;1.00
21928;DHT22;11128;51.096;17.190;2023-09-07T01:55:43;14.60;1.00
21928;DHT22;11128;51.096;17.190;2023-09-07T02:00:44;14.60;1.00
21928;DHT22;11128;51.096;17.190;2023-09-07T02:05:46;14.50;1.00
21928;DHT22;11128;51.096;17.190;2023-09-07T02:10:47;14.50;1.00
21928;DHT22;11128;51.096;17.190;2023-09-07T02:15:48;14.60;1.00
21928;DHT22;11128;51.096;17.190;2023-09-07T02:20:50;14.30;1.00
21928;DHT22;11128;51.096;17.190;2023-09-07T02:25:51;14.20;1.00
21928;DHT22;11128;51.096;17.190;2023-09-07T02:30:52;14.10;1.00
21928;DHT22;11128;51.096;17.190;2023-09-07T02:35:54;14.10;1.00
21928;DHT22;11128;51.096;17.190;2023-09-07T02:40:55;14.10;1.00
21928;DHT22;11128;51.096;17.190;2023-09-07T02:45:57;14.10;1.00
21928;DHT22;11128;51.096;17.190;2023-09-07T02:50:58;14.00;1.00
21928;DHT22;11128;51.096;17.190;2023-09-07T02:56:01;13.80;1.00
21928;DHT22;11128;51.096;17.190;2023-09-07T03:01:08;13.90;1.00
21928;DHT22;11128;51.096;17.190;2023-09-07T03:06:13;13.80;1.00
21928;DHT22;11128;51.096;17.190;2023-09-07T03:11:15;13.90;1.00
21928;DHT22;11128;51.096;17.190;2023-09-07T03:16:16;13.90;1.00
21928;DHT22;11128;51.096;17.190;2023-09-07T03:21:17;13.80;1.00
21928;DHT22;11128;51.096;17.190;2023-09-07T03:26:18;13.70;1.00
21928;DHT22;11128;51.096;17.190;2023-09-07T03:31:20;13.60;1.00
21928;DHT22;11128;51.096;17.190;2023-09-07T03:36:21;13.50;1.00
21928;DHT22;11128;51.096;17.190;2023-09-07T03:41:23;13.40;1.00
21928;DHT22;11128;51.096;17.190;2023-09-07T03:46:24;13.30;1.00
21928;DHT22;11128;51.096;17.190;2023-09-07T03:51:25;13.20;1.00
21928;DHT22;11128;51.096;17.190;2023-09-07T03:56:26;13.10;1.00
21928;DHT22;11128;51.096;17.190;2023-09-07T04:01:27;13.10;1.00
21928;DHT22;11128;51.096;17.190;2023-09-07T04:06:29;13.10;1.00
21928;DHT22;11128;51.096;17.190;2023-09-07T04:11:30;13.00;1.00
21928;DHT22;11128;51.096;17.190;2023-09-07T04:16:31;12.90;1.00
21928;DHT22;11128;51.096;17.190;2023-09-07T04:21:32;12.90;1.00
21928;DHT22;11128;51.096;17.190;2023-09-07T04:26:36;12.90;1.00
21928;DHT22;11128;51.096;17.190;2023-09-07T04:31:38;12.80;1.00
21928;DHT22;11128;51.096;17.190;2023-09-07T04:36:40;12.80;1.00
21928;DHT22;11128;51.096;17.190;2023-09-07T04:41:41;12.80;1.00
21928;DHT22;11128;51.096;17.190;2023-09-07T04:46:42;12.70;1.00
21928;DHT22;11128;51.096;17.190;2023-09-07T04:51:43;12.60;1.00
21928;DHT22;11128;51.096;17.190;2023-09-07T04:56:45;12.70;1.00
21928;DHT22;11128;51.096;17.190;2023-09-07T05:01:46;12.80;1.00
21928;DHT22;11128;51.096;17.190;2023-09-07T05:06:47;12.80;1.00
21928;DHT22;11128;51.096;17.190;2023-09-07T05:11:49;12.90;1.00
21928;DHT22;11128;51.096;17.190;2023-09-07T05:16:50;13.10;1.00
21928;DHT22;11128;51.096;17.190;2023-09-07T05:21:51;13.20;1.00
21928;DHT22;11128;51.096;17.190;2023-09-07T05:26:53;13.20;1.00
21928;DHT22;11128;51.096;17.190;2023-09-07T05:31:54;13.30;1.00
21928;DHT22;11128;51.096;17.190;2023-09-07T05:36:55;13.40;1.00
21928;DHT22;11128;51.096;17.190;2023-09-07T05:41:56;13.40;1.00
21928;DHT22;11128;51.096;17.190;2023-09-07T05:46:57;13.50;1.00
21928;DHT22;11128;51.096;17.190;2023-09-07T05:51:59;13.50;1.00
21928;DHT22;11128;51.096;17.190;2023-09-07T05:57:00;13.70;1.00
21928;DHT22;11128;51.096;17.190;2023-09-07T06:02:02;13.70;78.60
21928;DHT22;11128;51.096;17.190;2023-09-07T06:07:07;13.90;99.90
21928;DHT22;11128;51.096;17.190;2023-09-07T06:12:09;14.00;1.00
21928;DHT22;11128;51.096;17.190;2023-09-07T06:17:10;14.20;1.00
21928;DHT22;11128;51.096;17.190;2023-09-07T06:22:11;14.40;99.90
21928;DHT22;11128;51.096;17.190;2023-09-07T06:27:12;14.50;1.00
21928;DHT22;11128;51.096;17.190;2023-09-07T06:32:14;14.80;99.90
21928;DHT22;11128;51.096;17.190;2023-09-07T06:37:15;15.10;99.90
21928;DHT22;11128;51.096;17.190;2023-09-07T06:42:16;15.30;1.00
21928;DHT22;11128;51.096;17.190;2023-09-07T06:47:18;15.60;1.00
21928;DHT22;11128;51.096;17.190;2023-09-07T06:52:19;16.00;1.00
21928;DHT22;11128;51.096;17.190;2023-09-07T06:57:20;16.30;1.00
21928;DHT22;11128;51.096;17.190;2023-09-07T07:02:22;16.60;99.90
21928;DHT22;11128;51.096;17.190;2023-09-07T07:07:23;16.90;99.90
21928;DHT22;11128;51.096;17.190;2023-09-07T07:12:25;17.30;5.80
21928;DHT22;11128;51.096;17.190;2023-09-07T07:17:33;17.60;1.00
21928;DHT22;11128;51.096;17.190;2023-09-07T07:22:34;18.00;1.00
21928;DHT22;11128;51.096;17.190;2023-09-07T07:27:36;18.30;99.90
21928;DHT22;11128;51.096;17.190;2023-09-07T07:32:38;18.70;99.90
21928;DHT22;11128;51.096;17.190;2023-09-07T07:37:39;19.00;1.00
21928;DHT22;11128;51.096;17.190;2023-09-07T07:42:40;19.40;1.00
21928;DHT22;11128;51.096;17.190;2023-09-07T07:47:42;19.80;1.00
21928;DHT22;11128;51.096;17.190;2023-09-07T07:52:44;20.20;1.00
21928;DHT22;11128;51.096;17.190;2023-09-07T07:57:46;20.50;99.90
21928;DHT22;11128;51.096;17.190;2023-09-07T08:02:47;20.90;99.90
21928;DHT22;11128;51.096;17.190;2023-09-07T08:07:48;21.30;99.90
21928;DHT22;11128;51.096;17.190;2023-09-07T08:12:56;21.70;99.90
21928;DHT22;11128;51.096;17.190;2023-09-07T08:17:57;22.10;99.90
21928;DHT22;11128;51.096;17.190;2023-09-07T08:22:58;22.50;99.90
21928;DHT22;11128;51.096;17.190;2023-09-07T08:28:00;22.80;99.90
21928;DHT22;11128;51.096;17.190;2023-09-07T08:33:01;23.30;99.90
21928;DHT22;11128;51.096;17.190;2023-09-07T08:38:03;23.60;87.60
21928;DHT22;11128;51.096;17.190;2023-09-07T08:43:09;24.00;57.70
21928;DHT22;11128;51.096;17.190;2023-09-07T08:48:13;24.40;9.70
21928;DHT22;11128;51.096;17.190;2023-09-07T08:53:19;24.80;2.70
21928;DHT22;11128;51.096;17.190;2023-09-07T08:58:23;25.10;1.00
21928;DHT22;11128;51.096;17.190;2023-09-07T09:03:24;25.50;1.00
21928;DHT22;11128;51.096;17.190;2023-09-07T09:08:25;25.80;1.00
21928;DHT22;11128;51.096;17.190;2023-09-07T09:13:28;26.10;1.00
21928;DHT22;11128;51.096;17.190;2023-09-07T09:18:30;26.40;1.00
21928;DHT22;11128;51.096;17.190;2023-09-07T09:23:36;26.70;1.00
21928;DHT22;11128;51.096;17.190;2023-09-07T09:28:37;26.90;1.00
21928;DHT22;11128;51.096;17.190;2023-09-07T09:33:39;27.20;1.00
21928;DHT22;11128;51.096;17.190;2023-09-07T09:38:47;27.50;1.00
21928;DHT22;11128;51.096;17.190;2023-09-07T09:43:49;27.80;1.00
21928;DHT22;11128;51.096;17.190;2023-09-07T09:48:52;28.00;1.00
21928;DHT22;11128;51.096;17.190;2023-09-07T09:53:55;28.10;1.00
21928;DHT22;11128;51.096;17.190;2023-09-07T09:58:57;28.30;1.00
21928;DHT22;11128;51.096;17.190;2023-09-07T10:03:59;28.60;1.00
21928;DHT22;11128;51.096;17.190;2023-09-07T10:09:05;28.70;1.00
21928;DHT22;11128;51.096;17.190;2023-09-07T10:14:12;28.80;1.00
21928;DHT22;11128;51.096;17.190;2023-09-07T10:24:33;29.10;1.00
21928;DHT22;11128;51.096;17.190;2023-09-07T10:29:55;29.30;1.00
21928;DHT22;11128;51.096;17.190;2023-09-07T10:34:59;29.20;1.00
21928;DHT22;11128;51.096;17.190;2023-09-07T10:40:00;29.20;1.00
21928;DHT22;11128;51.096;17.190;2023-09-07T10:45:13;29.20;1.00
21928;DHT22;11128;51.096;17.190;2023-09-07T10:50:17;29.40;1.00
21928;DHT22;11128;51.096;17.190;2023-09-07T10:55:18;29.50;1.00
21928;DHT22;11128;51.096;17.190;2023-09-07T11:00:19;29.70;1.00
21928;DHT22;11128;51.096;17.190;2023-09-07T11:05:21;29.80;1.00
21928;DHT22;11128;51.096;17.190;2023-09-07T11:10:23;29.80;1.00
21928;DHT22;11128;51.096;17.190;2023-09-07T11:15:24;30.00;1.00
21928;DHT22;11128;51.096;17.190;2023-09-07T11:20:26;30.00;1.00
21928;DHT22;11128;51.096;17.190;2023-09-07T11:25:37;29.90;1.00
21928;DHT22;11128;51.096;17.190;2023-09-07T11:30:51;29.90;1.00
21928;DHT22;11128;51.096;17.190;2023-09-07T11:35:54;29.90;1.00
21928;DHT22;11128;51.096;17.190;2023-09-07T11:40:56;30.00;1.00
21928;DHT22;11128;51.096;17.190;2023-09-07T11:45:58;30.10;1.00
21928;DHT22;11128;51.096;17.190;2023-09-07T11:51:00;30.10;1.00
21928;DHT22;11128;51.096;17.190;2023-09-07T11:56:01;30.40;1.00
21928;DHT22;11128;51.096;17.190;2023-09-07T12:01:03;30.40;1.00
21928;DHT22;11128;51.096;17.190;2023-09-07T12:06:05;30.40;1.00
21928;DHT22;11128;51.096;17.190;2023-09-07T12:11:07;30.60;1.00
21928;DHT22;11128;51.096;17.190;2023-09-07T12:16:08;30.40;1.00
21928;DHT22;11128;51.096;17.190;2023-09-07T12:21:10;30.30;1.00
21928;DHT22;11128;51.096;17.190;2023-09-07T12:26:14;30.50;1.00
21928;DHT22;11128;51.096;17.190;2023-09-07T12:31:17;30.50;1.00
21928;DHT22;11128;51.096;17.190;2023-09-07T12:36:19;30.50;1.00
21928;DHT22;11128;51.096;17.190;2023-09-07T12:41:22;30.50;1.00
21928;DHT22;11128;51.096;17.190;2023-09-07T12:46:24;30.40;1.00
21928;DHT22;11128;51.096;17.190;2023-09-07T12:51:25;30.50;1.00
21928;DHT22;11128;51.096;17.190;2023-09-07T12:56:26;30.40;1.00
21928;DHT22;11128;51.096;17.190;2023-09-07T13:01:28;30.40;1.00
21928;DHT22;11128;51.096;17.190;2023-09-07T13:06:30;30.30;1.00
21928;DHT22;11128;51.096;17.190;2023-09-07T13:11:32;30.10;1.00
21928;DHT22;11128;51.096;17.190;2023-09-07T13:16:34;30.30;1.00
21928;DHT22;11128;51.096;17.190;2023-09-07T13:21:36;30.40;1.00
21928;DHT22;11128;51.096;17.190;2023-09-07T13:26:37;30.40;1.00
21928;DHT22;11128;51.096;17.190;2023-09-07T13:31:38;30.30;1.00
21928;DHT22;11128;51.096;17.190;2023-09-07T13:36:40;30.30;1.00
21928;DHT22;11128;51.096;17.190;2023-09-07T13:41:41;30.20;1.00
21928;DHT22;11128;51.096;17.190;2023-09-07T13:46:43;30.10;1.00
21928;DHT22;11128;51.096;17.190;2023-09-07T13:51:45;30.00;1.00
21928;DHT22;11128;51.096;17.190;2023-09-07T13:56:46;30.10;1.00
21928;DHT22;11128;51.096;17.190;2023-09-07T14:01:48;30.30;1.00
21928;DHT22;11128;51.096;17.190;2023-09-07T14:06:50;30.20;1.00
21928;DHT22;11128;51.096;17.190;2023-09-07T14:11:51;30.20;1.00
21928;DHT22;11128;51.096;17.190;2023-09-07T14:16:53;30.00;1.00
21928;DHT22;11128;51.096;17.190;2023-09-07T14:21:58;29.90;1.00
21928;DHT22;11128;51.096;17.190;2023-09-07T14:26:59;29.70;1.00
21928;DHT22;11128;51.096;17.190;2023-09-07T14:32:01;29.60;1.00
21928;DHT22;11128;51.096;17.190;2023-09-07T14:37:02;29.30;1.00
21928;DHT22;11128;51.096;17.190;2023-09-07T14:42:04;29.30;1.00
21928;DHT22;11128;51.096;17.190;2023-09-07T14:47:12;29.20;1.00
21928;DHT22;11128;51.096;17.190;2023-09-07T14:52:13;29.20;1.00
21928;DHT22;11128;51.096;17.190;2023-09-07T14:57:14;29.20;1.00
21928;DHT22;11128;51.096;17.190;2023-09-07T15:02:16;29.10;1.00
21928;DHT22;11128;51.096;17.190;2023-09-07T15:07:17;28.80;1.00
21928;DHT22;11128;51.096;17.190;2023-09-07T15:12:19;28.70;1.00
21928;DHT22;11128;51.096;17.190;2023-09-07T15:17:21;28.70;1.00
21928;DHT22;11128;51.096;17.190;2023-09-07T15:22:22;28.50;1.00
21928;DHT22;11128;51.096;17.190;2023-09-07T15:27:23;28.50;1.00
21928;DHT22;11128;51.096;17.190;2023-09-07T15:32:24;28.30;1.00
21928;DHT22;11128;51.096;17.190;2023-09-07T15:37:25;28.10;1.00
21928;DHT22;11128;51.096;17.190;2023-09-07T15:42:28;27.90;1.00
21928;DHT22;11128;51.096;17.190;2023-09-07T15:47:30;27.80;1.00
21928;DHT22;11128;51.096;17.190;2023-09-07T15:52:32;27.80;1.00
21928;DHT22;11128;51.096;17.190;2023-09-07T15:57:35;27.70;1.00
21928;DHT22;11128;51.096;17.190;2023-09-07T16:02:36;27.50;1.00
21928;DHT22;11128;51.096;17.190;2023-09-07T16:07:38;27.40;1.00
21928;DHT22;11128;51.096;17.190;2023-09-07T16:12:39;27.20;1.00
21928;DHT22;11128;51.096;17.190;2023-09-07T16:17:41;27.10;1.00
21928;DHT22;11128;51.096;17.190;2023-09-07T16:22:43;27.00;1.00
21928;DHT22;11128;51.096;17.190;2023-09-07T16:27:44;26.80;1.00
21928;DHT22;11128;51.096;17.190;2023-09-07T16:32:50;26.70;1.00
21928;DHT22;11128;51.096;17.190;2023-09-07T16:37:52;26.50;1.00
21928;DHT22;11128;51.096;17.190;2023-09-07T16:42:53;26.40;1.00
21928;DHT22;11128;51.096;17.190;2023-09-07T16:47:54;26.10;1.00
21928;DHT22;11128;51.096;17.190;2023-09-07T16:52:56;25.90;1.00
21928;DHT22;11128;51.096;17.190;2023-09-07T16:57:58;25.90;1.00
21928;DHT22;11128;51.096;17.190;2023-09-07T17:03:01;25.70;1.00
21928;DHT22;11128;51.096;17.190;2023-09-07T17:08:04;25.50;1.00
21928;DHT22;11128;51.096;17.190;2023-09-07T17:13:07;25.40;1.00
21928;DHT22;11128;51.096;17.190;2023-09-07T17:18:08;25.30;1.00
21928;DHT22;11128;51.096;17.190;2023-09-07T17:23:10;25.20;1.00
21928;DHT22;11128;51.096;17.190;2023-09-07T17:28:11;25.00;1.00
21928;DHT22;11128;51.096;17.190;2023-09-07T17:33:13;24.90;1.00
21928;DHT22;11128;51.096;17.190;2023-09-07T17:38:14;24.70;1.00
21928;DHT22;11128;51.096;17.190;2023-09-07T17:43:15;24.50;1.00
21928;DHT22;11128;51.096;17.190;2023-09-07T17:48:16;24.40;1.00
21928;DHT22;11128;51.096;17.190;2023-09-07T17:53:18;24.20;1.00
21928;DHT22;11128;51.096;17.190;2023-09-07T17:58:19;24.00;1.00
21928;DHT22;11128;51.096;17.190;2023-09-07T18:03:20;23.70;1.00
21928;DHT22;11128;51.096;17.190;2023-09-07T18:08:22;23.50;1.00
21928;DHT22;11128;51.096;17.190;2023-09-07T18:13:24;23.40;1.00
21928;DHT22;11128;51.096;17.190;2023-09-07T18:18:25;23.20;1.00
21928;DHT22;11128;51.096;17.190;2023-09-07T18:23:26;23.00;1.00
21928;DHT22;11128;51.096;17.190;2023-09-07T18:28:28;22.90;1.00
21928;DHT22;11128;51.096;17.190;2023-09-07T18:33:29;22.70;1.00
21928;DHT22;11128;51.096;17.190;2023-09-07T18:38:31;22.60;1.00
21928;DHT22;11128;51.096;17.190;2023-09-07T18:43:34;22.50;1.00
21928;DHT22;11128;51.096;17.190;2023-09-07T18:48:35;22.30;1.00
21928;DHT22;11128;51.096;17.190;2023-09-07T18:53:37;22.20;1.00
21928;DHT22;11128;51.096;17.190;2023-09-07T18:58:39;22.00;1.00
21928;DHT22;11128;51.096;17.190;2023-09-07T19:03:53;21.90;1.00
21928;DHT22;11128;51.096;17.190;2023-09-07T19:08:55;21.70;7.00
21928;DHT22;11128;51.096;17.190;2023-09-07T19:13:56;21.60;17.00
21928;DHT22;11128;51.096;17.190;2023-09-07T19:18:58;21.50;20.10
21928;DHT22;11128;51.096;17.190;2023-09-07T19:23:59;21.40;29.50
21928;DHT22;11128;51.096;17.190;2023-09-07T19:29:02;21.20;46.70
21928;DHT22;11128;51.096;17.190;2023-09-07T19:34:05;21.20;41.90
21928;DHT22;11128;51.096;17.190;2023-09-07T19:39:06;21.00;57.00
21928;DHT22;11128;51.096;17.190;2023-09-07T19:44:08;20.90;68.80
21928;DHT22;11128;51.096;17.190;2023-09-07T19:49:10;20.70;92.70
21928;DHT22;11128;51.096;17.190;2023-09-07T19:54:13;20.70;88.80
21928;DHT22;11128;51.096;17.190;2023-09-07T19:59:15;20.60;94.00
21928;DHT22;11128;51.096;17.190;2023-09-07T20:04:17;20.50;92.60
21928;DHT22;11128;51.096;17.190;2023-09-07T20:09:20;20.40;98.90
21928;DHT22;11128;51.096;17.190;2023-09-07T20:14:21;20.40;98.80
21928;DHT22;11128;51.096;17.190;2023-09-07T20:19:22;20.20;99.90
21928;DHT22;11128;51.096;17.190;2023-09-07T20:24:24;20.10;99.90
21928;DHT22;11128;51.096;17.190;2023-09-07T20:29:25;20.00;99.90
21928;DHT22;11128;51.096;17.190;2023-09-07T20:34:27;19.80;99.90
21928;DHT22;11128;51.096;17.190;2023-09-07T20:39:28;19.80;99.90
21928;DHT22;11128;51.096;17.190;2023-09-07T20:44:29;19.70;99.90
21928;DHT22;11128;51.096;17.190;2023-09-07T20:49:31;19.60;99.90
21928;DHT22;11128;51.096;17.190;2023-09-07T20:54:33;19.50;99.90
21928;DHT22;11128;51.096;17.190;2023-09-07T20:59:34;19.40;99.90
21928;DHT22;11128;51.096;17.190;2023-09-07T21:04:35;19.30;99.90
21928;DHT22;11128;51.096;17.190;2023-09-07T21:09:37;19.30;99.90
21928;DHT22;11128;51.096;17.190;2023-09-07T21:14:38;19.20;99.90
21928;DHT22;11128;51.096;17.190;2023-09-07T21:19:39;19.30;99.90
21928;DHT22;11128;51.096;17.190;2023-09-07T21:24:40;19.20;99.90
21928;DHT22;11128;51.096;17.190;2023-09-07T21:29:42;19.00;99.90
21928;DHT22;11128;51.096;17.190;2023-09-07T21:34:43;18.90;99.90
21928;DHT22;11128;51.096;17.190;2023-09-07T21:39:48;18.90;99.90
21928;DHT22;11128;51.096;17.190;2023-09-07T21:44:50;18.90;99.90
21928;DHT22;11128;51.096;17.190;2023-09-07T21:49:51;18.70;99.90
21928;DHT22;11128;51.096;17.190;2023-09-07T21:54:54;18.60;99.90
21928;DHT22;11128;51.096;17.190;2023-09-07T21:59:55;18.60;99.90
21928;DHT22;11128;51.096;17.190;2023-09-07T22:04:56;18.40;99.90
21928;DHT22;11128;51.096;17.190;2023-09-07T22:09:57;18.40;99.90
21928;DHT22;11128;51.096;17.190;2023-09-07T22:14:59;18.20;99.90
21928;DHT22;11128;51.096;17.190;2023-09-07T22:20:00;18.10;99.90
21928;DHT22;11128;51.096;17.190;2023-09-07T22:25:01;18.00;99.90
21928;DHT22;11128;51.096;17.190;2023-09-07T22:30:04;17.90;99.90
21928;DHT22;11128;51.096;17.190;2023-09-07T22:35:05;18.00;99.90
21928;DHT22;11128;51.096;17.190;2023-09-07T22:40:07;17.90;99.90
21928;DHT22;11128;51.096;17.190;2023-09-07T22:45:16;18.00;99.90
21928;DHT22;11128;51.096;17.190;2023-09-07T22:50:17;17.90;99.90
21928;DHT22;11128;51.096;17.190;2023-09-07T23:00:43;17.60;99.90
21928;DHT22;11128;51.096;17.190;2023-09-07T23:05:44;17.40;99.90
21928;DHT22;11128;51.096;17.190;2023-09-07T23:10:46;17.30;99.90
21928;DHT22;11128;51.096;17.190;2023-09-07T23:15:47;17.30;99.90
21928;DHT22;11128;51.096;17.190;2023-09-07T23:20:49;17.40;99.90
21928;DHT22;11128;51.096;17.190;2023-09-07T23:25:53;17.40;99.90
21928;DHT22;11128;51.096;17.190;2023-09-07T23:30:54;17.20;99.90
21928;DHT22;11128;51.096;17.190;2023-09-07T23:35:55;17.10;99.90
21928;DHT22;11128;51.096;17.190;2023-09-07T23:40:56;17.00;99.90
21928;DHT22;11128;51.096;17.190;2023-09-07T23:45:58;16.90;99.90
21928;DHT22;11128;51.096;17.190;2023-09-07T23:50:59;16.80;99.90
21928;DHT22;11128;51.096;17.190;2023-09-07T23:56:00;16.70;99.90
